createdAt,value
2018-09-11T00:02:10.860Z,60388.74
2018-09-11T00:04:39.031Z,60400.93
2018-09-11T00:07:07.263Z,60414.14
2018-09-11T00:09:35.464Z,60434.47
2018-09-11T00:12:03.648Z,60411.10
2018-09-11T00:14:31.831Z,60385.69
2018-09-11T00:17:00.042Z,60412.11
2018-09-11T00:19:28.229Z,60400.93
2018-09-11T00:21:56.408Z,60402.97
2018-09-11T00:24:24.601Z,60406.02
2018-09-11T00:26:52.792Z,60426.34
2018-09-11T00:29:20.982Z,60405.00
2018-09-11T00:31:49.163Z,60416.18
2018-09-11T00:34:17.359Z,60398.90
2018-09-11T00:36:45.624Z,60422.27
2018-09-11T00:39:13.845Z,60418.21
2018-09-11T00:41:42.035Z,60405.00
2018-09-11T00:44:10.246Z,60406.02
2018-09-11T00:46:38.437Z,60426.34
2018-09-11T00:49:06.666Z,60392.80
2018-09-11T00:51:34.851Z,60424.31
2018-09-11T00:54:03.058Z,60427.36
2018-09-11T00:56:31.709Z,60426.34
2018-09-11T00:58:59.895Z,60420.24
2018-09-11T01:01:28.132Z,60433.45
2018-09-11T01:03:56.297Z,60431.42
2018-09-11T01:06:24.512Z,60413.13
2018-09-11T01:08:52.690Z,60416.18
2018-09-11T01:11:20.896Z,60427.36
2018-09-11T01:13:49.589Z,60407.03
2018-09-11T01:16:17.771Z,60431.42
2018-09-11T01:18:45.979Z,60422.27
2018-09-11T01:21:14.186Z,60445.65
2018-09-11T01:23:42.391Z,60428.37
2018-09-11T01:26:10.573Z,60440.57
2018-09-11T01:28:38.786Z,60424.31
2018-09-11T01:31:06.968Z,60417.20
2018-09-11T01:33:35.139Z,60430.40
2018-09-11T01:36:03.318Z,60416.18
2018-09-11T01:38:31.519Z,60430.40
2018-09-11T01:40:59.700Z,60416.18
2018-09-11T01:43:28.524Z,60421.26
2018-09-11T01:45:56.929Z,60440.57
2018-09-11T01:48:25.115Z,60429.39
2018-09-11T01:50:53.300Z,60430.40
2018-09-11T01:53:21.479Z,60417.20
2018-09-11T01:55:49.672Z,60428.37
2018-09-11T01:58:17.846Z,60421.26
2018-09-11T02:00:46.027Z,60445.65
2018-09-11T02:03:14.216Z,60435.48
2018-09-11T02:05:42.397Z,60440.57
2018-09-11T02:08:10.584Z,60451.75
2018-09-11T02:10:38.764Z,60440.57
2018-09-11T02:13:06.939Z,60441.58
2018-09-11T02:15:35.140Z,60435.48
2018-09-11T02:18:03.344Z,60453.78
2018-09-11T02:20:31.547Z,60430.40
2018-09-11T02:22:59.718Z,60453.78
2018-09-11T02:25:27.916Z,60427.36
2018-09-11T02:27:57.613Z,60444.63
2018-09-11T02:30:25.879Z,60428.37
2018-09-11T02:32:54.055Z,60433.45
2018-09-11T02:35:22.291Z,60432.44
2018-09-11T02:37:50.478Z,60433.45
2018-09-11T02:40:18.774Z,60416.18
2018-09-11T02:42:46.971Z,60426.34
2018-09-11T02:45:15.144Z,60431.42
2018-09-11T02:47:43.350Z,60431.42
2018-09-11T02:50:11.545Z,60421.26
2018-09-11T02:52:39.847Z,60445.65
2018-09-11T02:55:08.553Z,60419.23
2018-09-11T02:57:36.765Z,60426.34
2018-09-11T03:00:04.968Z,60420.24
2018-09-11T03:02:33.152Z,60436.50
2018-09-11T03:05:01.345Z,60432.44
2018-09-11T03:07:29.544Z,60452.76
2018-09-11T03:09:57.717Z,60415.16
2018-09-11T03:12:25.891Z,60464.96
2018-09-11T03:14:54.071Z,60440.57
2018-09-11T03:17:22.247Z,60445.65
2018-09-11T03:19:50.485Z,60440.57
2018-09-11T03:22:18.683Z,60440.57
2018-09-11T03:24:46.887Z,60410.08
2018-09-11T03:27:15.087Z,60448.70
2018-09-11T03:29:43.498Z,60475.12
2018-09-11T03:32:11.684Z,60454.79
2018-09-11T03:34:39.982Z,60450.73
2018-09-11T03:37:08.226Z,60444.63
2018-09-11T03:39:36.404Z,60442.60
2018-09-11T03:42:04.579Z,60426.34
2018-09-11T03:44:32.772Z,60432.44
2018-09-11T03:47:00.960Z,60461.91
2018-09-11T03:49:29.151Z,60443.61
2018-09-11T03:51:57.337Z,60423.29
2018-09-11T03:54:25.524Z,60439.55
2018-09-11T03:56:53.719Z,60425.32
2018-09-11T03:59:21.916Z,60444.63
2018-09-11T04:01:50.102Z,60422.27
2018-09-11T04:04:18.274Z,60421.26
2018-09-11T04:06:46.468Z,60435.48
2018-09-11T04:09:14.646Z,60450.73
2018-09-11T04:11:43.288Z,60426.34
2018-09-11T04:14:11.532Z,60435.48
2018-09-11T04:16:39.707Z,60444.63
2018-09-11T04:19:07.946Z,60405.00
2018-09-11T04:21:36.136Z,60437.52
2018-09-11T04:24:04.318Z,60441.58
2018-09-11T04:26:32.508Z,60451.75
2018-09-11T04:29:00.759Z,60451.75
2018-09-11T04:31:29.015Z,60422.27
2018-09-11T04:33:57.232Z,60447.68
2018-09-11T04:36:25.483Z,60450.73
2018-09-11T04:38:53.590Z,60422.27
2018-09-11T04:41:21.799Z,60456.82
2018-09-11T04:43:50.029Z,60453.78
2018-09-11T04:46:18.214Z,60412.11
2018-09-11T04:48:46.819Z,60437.52
2018-09-11T04:51:15.267Z,60421.26
2018-09-11T04:53:43.451Z,60427.36
2018-09-11T04:56:11.697Z,60432.44
2018-09-11T04:58:39.971Z,60429.39
2018-09-11T05:01:08.171Z,60451.75
2018-09-11T05:03:36.370Z,60426.34
2018-09-11T05:06:04.563Z,60448.70
2018-09-11T05:08:32.744Z,60418.21
2018-09-11T05:11:00.942Z,60470.04
2018-09-11T05:13:29.159Z,60431.42
2018-09-11T05:15:57.339Z,60426.34
2018-09-11T05:18:25.518Z,60454.79
2018-09-11T05:20:53.706Z,60435.48
2018-09-11T05:23:21.910Z,60416.18
2018-09-11T05:25:50.121Z,60437.52
2018-09-11T05:28:18.340Z,60433.45
2018-09-11T05:30:46.544Z,60430.40
2018-09-11T05:33:14.877Z,60431.42
2018-09-11T05:35:43.051Z,60452.76
2018-09-11T05:38:11.283Z,60442.60
2018-09-11T05:40:39.476Z,60439.55
2018-09-11T05:43:07.684Z,60457.84
2018-09-11T05:45:35.876Z,60449.71
2018-09-11T05:48:04.144Z,60443.61
2018-09-11T05:50:32.326Z,60441.58
2018-09-11T05:53:00.516Z,60450.73
2018-09-11T05:55:28.710Z,60449.71
2018-09-11T05:57:56.919Z,60443.61
2018-09-11T06:00:25.105Z,60453.78
2018-09-11T06:02:53.291Z,60452.76
2018-09-11T06:05:21.498Z,60427.36
2018-09-11T06:07:49.694Z,60440.57
2018-09-11T06:10:17.895Z,60443.61
2018-09-11T06:12:46.107Z,60419.23
2018-09-11T06:15:14.303Z,60442.60
2018-09-11T06:17:42.488Z,60428.37
2018-09-11T06:20:10.687Z,60426.34
2018-09-11T06:22:38.859Z,60456.82
2018-09-11T06:25:07.086Z,60453.78
2018-09-11T06:27:35.262Z,60440.57
2018-09-11T06:30:03.818Z,60426.34
2018-09-11T06:32:31.984Z,60415.16
2018-09-11T06:35:00.179Z,60435.48
2018-09-11T06:37:28.380Z,60462.92
2018-09-11T06:39:56.619Z,60422.27
2018-09-11T06:42:24.794Z,60450.73
2018-09-11T06:44:52.968Z,60417.20
2018-09-11T06:47:21.152Z,60433.45
2018-09-11T06:49:49.626Z,60423.29
2018-09-11T06:52:17.830Z,60430.40
2018-09-11T06:54:46.057Z,60407.03
2018-09-11T06:57:14.222Z,60431.42
2018-09-11T06:59:42.403Z,60423.29
2018-09-11T07:02:10.619Z,60412.11
2018-09-11T07:04:38.869Z,60426.34
2018-09-11T07:07:07.023Z,60446.66
2018-09-11T07:09:35.216Z,60417.20
2018-09-11T07:12:03.427Z,60428.37
2018-09-11T07:14:31.656Z,60433.45
2018-09-11T07:16:59.807Z,60432.44
2018-09-11T07:19:28.053Z,60422.27
2018-09-11T07:21:56.180Z,60422.27
2018-09-11T07:24:24.380Z,60426.34
2018-09-11T07:26:52.572Z,60430.40
2018-09-11T07:29:20.764Z,60416.18
2018-09-11T07:31:48.964Z,60397.89
2018-09-11T07:34:17.151Z,60402.97
2018-09-11T07:36:45.349Z,60423.29
2018-09-11T07:39:13.527Z,60431.42
2018-09-11T07:41:41.707Z,60409.07
2018-09-11T07:44:09.875Z,60403.98
2018-09-11T07:46:38.055Z,60393.82
2018-09-11T07:49:06.273Z,60403.98
2018-09-11T07:51:34.437Z,60385.69
2018-09-11T07:54:02.603Z,60405.00
2018-09-11T07:56:30.783Z,60403.98
2018-09-11T07:58:59.863Z,60402.97
2018-09-11T08:01:28.032Z,60379.59
2018-09-11T08:03:56.227Z,60390.77
2018-09-11T08:06:24.416Z,60376.55
2018-09-11T08:08:52.608Z,60387.72
2018-09-11T08:11:20.776Z,60395.86
2018-09-11T08:13:48.951Z,60397.89
2018-09-11T08:16:17.172Z,60363.34
2018-09-11T08:18:45.324Z,60403.98
2018-09-11T08:21:13.487Z,60357.24
2018-09-11T08:23:41.716Z,60389.76
2018-09-11T08:26:09.923Z,60380.61
2018-09-11T08:28:38.142Z,60380.61
2018-09-11T08:31:06.356Z,60362.32
2018-09-11T08:33:34.547Z,60377.56
2018-09-11T08:36:02.733Z,60387.72
2018-09-11T08:38:31.067Z,60370.45
2018-09-11T08:40:59.298Z,60355.21
2018-09-11T08:43:27.432Z,60366.39
2018-09-11T08:45:55.600Z,60348.09
2018-09-11T08:48:23.768Z,60360.29
2018-09-11T08:50:51.936Z,60357.24
2018-09-11T08:53:20.109Z,60370.45
2018-09-11T08:55:48.300Z,60359.27
2018-09-11T08:58:16.479Z,60348.09
2018-09-11T09:00:44.711Z,60335.90
2018-09-11T09:03:12.934Z,60346.06
2018-09-11T09:05:41.117Z,60330.82
2018-09-11T09:08:09.287Z,60334.88
2018-09-11T09:10:37.475Z,60333.87
2018-09-11T09:13:05.690Z,60344.03
2018-09-11T09:15:33.898Z,60346.06
2018-09-11T09:18:02.176Z,60357.24
2018-09-11T09:20:30.352Z,60333.87
2018-09-11T09:22:58.572Z,60339.96
2018-09-11T09:25:26.755Z,60325.74
2018-09-11T09:27:54.951Z,60298.30
2018-09-11T09:30:23.186Z,60310.50
2018-09-11T09:32:51.375Z,60309.48
2018-09-11T09:35:19.559Z,60306.43
2018-09-11T09:37:47.753Z,60299.32
2018-09-11T09:40:15.928Z,60306.43
2018-09-11T09:42:44.106Z,60281.03
2018-09-11T09:45:12.289Z,60296.27
2018-09-11T09:47:40.484Z,60287.12
2018-09-11T09:50:08.671Z,60271.88
2018-09-11T09:52:36.861Z,60286.11
2018-09-11T09:55:05.080Z,60275.95
2018-09-11T09:57:33.271Z,60263.75
2018-09-11T10:00:01.448Z,60278.99
2018-09-11T10:02:29.645Z,60262.74
2018-09-11T10:04:57.880Z,60248.51
2018-09-11T10:07:26.025Z,60243.43
2018-09-11T10:09:54.244Z,60249.53
2018-09-11T10:12:22.439Z,60257.66
2018-09-11T10:14:50.628Z,60268.83
2018-09-11T10:17:18.795Z,60263.75
2018-09-11T10:19:47.086Z,60258.67
2018-09-11T10:22:15.255Z,60258.67
2018-09-11T10:24:43.461Z,60249.53
2018-09-11T10:27:12.284Z,60238.35
2018-09-11T10:29:40.455Z,60231.24
2018-09-11T10:32:08.631Z,60246.48
2018-09-11T10:34:36.823Z,60241.40
2018-09-11T10:37:05.002Z,60231.24
2018-09-11T10:39:33.512Z,60249.53
2018-09-11T10:42:01.464Z,60229.20
2018-09-11T10:44:29.629Z,60225.14
2018-09-11T10:46:57.835Z,60209.90
2018-09-11T10:49:26.002Z,60226.16
2018-09-11T10:51:54.259Z,60207.86
2018-09-11T10:54:22.348Z,60212.95
2018-09-11T10:56:50.527Z,60204.82
2018-09-11T10:59:18.702Z,60208.88
2018-09-11T11:01:46.906Z,60200.75
2018-09-11T11:04:15.094Z,60226.16
2018-09-11T11:06:43.252Z,60217.01
2018-09-11T11:09:11.675Z,60202.79
2018-09-11T11:11:40.107Z,60200.75
2018-09-11T11:14:08.662Z,60233.27
2018-09-11T11:16:36.834Z,60206.85
2018-09-11T11:19:05.311Z,60210.91
2018-09-11T11:21:33.479Z,60203.80
2018-09-11T11:24:01.641Z,60211.93
2018-09-11T11:26:29.821Z,60214.98
2018-09-11T11:28:57.994Z,60194.66
2018-09-11T11:31:26.201Z,60210.91
2018-09-11T11:33:54.353Z,60198.72
2018-09-11T11:36:22.689Z,60193.64
2018-09-11T11:38:50.690Z,60190.59
2018-09-11T11:41:19.527Z,60215.99
2018-09-11T11:43:47.755Z,60211.93
2018-09-11T11:46:15.925Z,60206.85
2018-09-11T11:48:44.117Z,60218.03
2018-09-11T11:51:12.295Z,60198.72
2018-09-11T11:53:40.504Z,60206.85
2018-09-11T11:56:09.196Z,60203.80
2018-09-11T11:58:37.402Z,60195.67
2018-09-11T12:01:05.684Z,60210.91
2018-09-11T12:03:33.942Z,60194.66
2018-09-11T12:06:02.399Z,60208.88
2018-09-11T12:08:31.190Z,60212.95
2018-09-11T12:10:59.372Z,60210.91
2018-09-11T12:13:27.561Z,60198.72
2018-09-11T12:15:55.758Z,60211.93
2018-09-11T12:18:23.955Z,60214.98
2018-09-11T12:20:52.153Z,60230.22
2018-09-11T12:23:20.331Z,60193.64
2018-09-11T12:25:48.532Z,60215.99
2018-09-11T12:28:16.697Z,60220.06
2018-09-11T12:30:44.870Z,60209.90
2018-09-11T12:33:13.063Z,60194.66
2018-09-11T12:35:41.243Z,60211.93
2018-09-11T12:38:09.624Z,60184.49
2018-09-11T12:40:37.794Z,60219.04
2018-09-11T12:43:07.024Z,60195.67
2018-09-11T12:45:35.403Z,60214.98
2018-09-11T12:48:04.071Z,60203.80
2018-09-11T12:50:31.934Z,60188.56
2018-09-11T12:53:00.172Z,60185.51
2018-09-11T12:55:28.336Z,60191.61
2018-09-11T12:57:56.559Z,60183.48
2018-09-11T13:00:24.800Z,60191.61
2018-09-11T13:02:52.988Z,60177.38
2018-09-11T13:05:21.257Z,60183.48
2018-09-11T13:07:49.447Z,60185.51
2018-09-11T13:10:17.640Z,60192.62
2018-09-11T13:12:45.805Z,60191.61
2018-09-11T13:15:14.035Z,60199.74
2018-09-11T13:17:42.149Z,60188.56
2018-09-11T13:20:10.358Z,60190.59
2018-09-11T13:22:38.543Z,60194.66
2018-09-11T13:25:06.757Z,60181.45
2018-09-11T13:27:34.935Z,60186.52
2018-09-11T13:30:03.169Z,60196.69
2018-09-11T13:32:31.520Z,60196.69
2018-09-11T13:34:59.740Z,60201.77
2018-09-11T13:37:27.941Z,60202.79
2018-09-11T13:39:56.128Z,60177.38
2018-09-11T13:42:24.329Z,60169.25
2018-09-11T13:44:52.544Z,60203.80
2018-09-11T13:47:20.845Z,60184.49
2018-09-11T13:49:48.960Z,60199.74
2018-09-11T13:52:17.371Z,60190.59
2018-09-11T13:54:45.544Z,60183.48
2018-09-11T13:57:13.726Z,60190.59
2018-09-11T13:59:41.928Z,60188.56
2018-09-11T14:02:10.136Z,60193.64
2018-09-11T14:04:38.315Z,60194.66
2018-09-11T14:07:06.495Z,60198.72
2018-09-11T14:09:34.673Z,60202.79
2018-09-11T14:12:02.850Z,60213.96
2018-09-11T14:14:31.031Z,60177.38
2018-09-11T14:16:59.303Z,60177.38
2018-09-11T14:19:27.487Z,60215.99
2018-09-11T14:21:55.694Z,60192.62
2018-09-11T14:24:23.857Z,60188.56
2018-09-11T14:26:52.120Z,60199.74
2018-09-11T14:29:20.244Z,60208.88
2018-09-11T14:31:48.471Z,60186.52
2018-09-11T14:34:16.676Z,60192.62
2018-09-11T14:36:44.876Z,60194.66
2018-09-11T14:39:13.503Z,60191.61
2018-09-11T14:41:41.699Z,60188.56
2018-09-11T14:44:10.025Z,60196.69
2018-09-11T14:46:38.316Z,60193.64
2018-09-11T14:49:06.501Z,60225.14
2018-09-11T14:51:34.693Z,60190.59
2018-09-11T14:54:02.894Z,60201.77
2018-09-11T14:56:31.067Z,60205.83
2018-09-11T14:58:59.295Z,60196.69
2018-09-11T15:01:32.815Z,60177.38
2018-09-11T15:04:01.007Z,60215.99
2018-09-11T15:06:31.231Z,60199.74
2018-09-11T15:08:59.526Z,60192.62
2018-09-11T15:11:27.896Z,60203.80
2018-09-11T15:13:58.172Z,60181.45
2018-09-11T15:16:26.866Z,60200.75
2018-09-11T15:18:57.203Z,60205.83
2018-09-11T15:21:28.891Z,60199.74
2018-09-11T15:23:57.789Z,60208.88
2018-09-11T15:26:25.971Z,60208.88
2018-09-11T15:28:58.317Z,60207.86
2018-09-11T15:31:26.511Z,60198.72
2018-09-11T15:33:54.816Z,60207.86
2018-09-11T15:36:23.095Z,60198.72
2018-09-11T15:38:51.476Z,60210.91
2018-09-11T15:41:19.695Z,60209.90
2018-09-11T15:43:47.973Z,60190.59
2018-09-11T15:46:16.179Z,60195.67
2018-09-11T15:48:44.389Z,60198.72
2018-09-11T15:51:12.616Z,60222.09
2018-09-11T15:53:40.869Z,60212.95
2018-09-11T15:56:09.085Z,60202.79
2018-09-11T15:58:37.368Z,60229.20
2018-09-11T16:01:05.560Z,60190.59
2018-09-11T16:03:33.795Z,60187.54
2018-09-11T16:06:02.165Z,60199.74
2018-09-11T16:08:31.451Z,60198.72
2018-09-11T16:10:59.641Z,60215.99
2018-09-11T16:13:27.847Z,60214.98
2018-09-11T16:15:57.552Z,60211.93
2018-09-11T16:18:27.285Z,60208.88
2018-09-11T16:20:56.307Z,60218.03
2018-09-11T16:23:26.247Z,60195.67
2018-09-11T16:25:55.291Z,60220.06
2018-09-11T16:28:24.692Z,60209.90
2018-09-11T16:30:52.941Z,60225.14
2018-09-11T16:33:21.212Z,60215.99
2018-09-11T16:35:52.939Z,60224.12
2018-09-11T16:38:23.427Z,60204.82
2018-09-11T16:40:52.287Z,60227.17
2018-09-11T16:43:20.536Z,60224.12
2018-09-11T16:45:49.381Z,60217.01
2018-09-11T16:48:17.798Z,60202.79
2018-09-11T16:50:49.065Z,60227.17
2018-09-11T16:53:18.015Z,60226.16
2018-09-11T16:55:46.358Z,60197.70
2018-09-11T16:58:14.865Z,60238.35
2018-09-11T17:00:43.507Z,60208.88
2018-09-11T17:03:11.732Z,60219.04
2018-09-11T17:05:44.004Z,60197.70
2018-09-11T17:08:17.219Z,60210.91
2018-09-11T17:10:46.956Z,60201.77
2018-09-11T17:13:15.385Z,60222.09
2018-09-11T17:15:44.327Z,60223.11
2018-09-11T17:18:13.763Z,60221.07
2018-09-11T17:20:42.091Z,60205.83
2018-09-11T17:23:10.939Z,60221.07
2018-09-11T17:25:39.322Z,60218.03
2018-09-11T17:28:08.241Z,60230.22
2018-09-11T17:30:38.088Z,60212.95
2018-09-11T17:33:06.283Z,60237.33
2018-09-11T17:35:34.527Z,60246.48
2018-09-11T17:38:02.839Z,60231.24
2018-09-11T17:40:31.063Z,60231.24
2018-09-11T17:42:59.277Z,60224.12
2018-09-11T17:45:27.451Z,60220.06
2018-09-11T17:47:56.085Z,60200.75
2018-09-11T17:50:24.343Z,60209.90
2018-09-11T17:52:52.900Z,60261.72
2018-09-11T17:55:21.190Z,60232.25
2018-09-11T17:57:49.972Z,60238.35
2018-09-11T18:00:18.291Z,60220.06
2018-09-11T18:02:48.364Z,60230.22
2018-09-11T18:05:16.736Z,60240.38
2018-09-11T18:07:44.944Z,60236.32
2018-09-11T18:10:13.807Z,60245.46
2018-09-11T18:12:43.016Z,60236.32
2018-09-11T18:15:12.423Z,60240.38
2018-09-11T18:17:44.489Z,60234.29
2018-09-11T18:20:12.877Z,60236.32
2018-09-11T18:22:41.717Z,60244.45
2018-09-11T18:25:09.951Z,60252.57
2018-09-11T18:27:38.366Z,60244.45
2018-09-11T18:30:06.591Z,60253.59
2018-09-11T18:32:34.808Z,60242.41
2018-09-11T18:35:03.119Z,60251.56
2018-09-11T18:37:31.369Z,60240.38
2018-09-11T18:39:59.550Z,60275.95
2018-09-11T18:42:27.844Z,60255.63
2018-09-11T18:44:56.114Z,60244.45
2018-09-11T18:47:24.546Z,60246.48
2018-09-11T18:49:54.092Z,60243.43
2018-09-11T18:52:22.579Z,60246.48
2018-09-11T18:54:52.266Z,60266.80
2018-09-11T18:57:20.587Z,60257.66
2018-09-11T18:59:48.967Z,60269.85
2018-09-11T19:02:17.284Z,60276.96
2018-09-11T19:04:45.655Z,60262.74
2018-09-11T19:07:14.554Z,60265.79
2018-09-11T19:09:42.807Z,60275.95
2018-09-11T19:12:11.208Z,60265.79
2018-09-11T19:14:39.421Z,60262.74
2018-09-11T19:17:08.045Z,60265.79
2018-09-11T19:19:36.233Z,60257.66
2018-09-11T19:22:04.678Z,60257.66
2018-09-11T19:24:32.894Z,60268.83
2018-09-11T19:27:01.538Z,60256.64
2018-09-11T19:29:29.709Z,60270.87
2018-09-11T19:31:57.939Z,60289.16
2018-09-11T19:34:26.545Z,60273.91
2018-09-11T19:36:54.771Z,60282.04
2018-09-11T19:39:23.092Z,60273.91
2018-09-11T19:41:51.503Z,60299.32
2018-09-11T19:44:20.255Z,60275.95
2018-09-11T19:46:48.545Z,60299.32
2018-09-11T19:49:16.823Z,60281.03
2018-09-11T19:51:45.052Z,60284.07
2018-09-11T19:54:13.339Z,60287.12
2018-09-11T19:56:41.511Z,60288.14
2018-09-11T19:59:09.727Z,60294.24
2018-09-11T20:01:37.899Z,60286.11
2018-09-11T20:04:06.096Z,60306.43
2018-09-11T20:06:34.315Z,60303.38
2018-09-11T20:09:02.517Z,60318.62
2018-09-11T20:11:30.687Z,60320.66
2018-09-11T20:13:58.875Z,60302.37
2018-09-11T20:16:27.068Z,60295.25
2018-09-11T20:18:55.239Z,60300.34
2018-09-11T20:21:23.436Z,60298.30
2018-09-11T20:23:51.606Z,60303.38
2018-09-11T20:26:19.783Z,60315.57
2018-09-11T20:28:47.964Z,60304.40
2018-09-11T20:31:16.157Z,60314.56
2018-09-11T20:33:44.328Z,60314.56
2018-09-11T20:36:12.509Z,60282.04
2018-09-11T20:38:40.747Z,60317.61
2018-09-11T20:41:08.949Z,60335.90
2018-09-11T20:43:37.155Z,60303.38
2018-09-11T20:46:05.360Z,60319.64
2018-09-11T20:48:33.556Z,60304.40
2018-09-11T20:51:01.763Z,60321.67
2018-09-11T20:53:29.946Z,60310.50
2018-09-11T20:55:58.179Z,60331.84
2018-09-11T20:58:26.312Z,60302.37
2018-09-11T21:00:54.487Z,60337.93
2018-09-11T21:03:22.679Z,60326.75
2018-09-11T21:05:50.885Z,60320.66
2018-09-11T21:08:19.102Z,60332.85
2018-09-11T21:10:47.332Z,60338.95
2018-09-11T21:13:15.523Z,60313.54
2018-09-11T21:15:43.738Z,60317.61
2018-09-11T21:18:11.902Z,60316.59
2018-09-11T21:20:40.255Z,60348.09
2018-09-11T21:23:08.554Z,60317.61
2018-09-11T21:25:36.743Z,60317.61
2018-09-11T21:28:05.157Z,60335.90
2018-09-11T21:30:33.359Z,60309.48
2018-09-11T21:33:01.549Z,60347.08
2018-09-11T21:35:29.730Z,60328.79
2018-09-11T21:40:25.146Z,60340.98
2018-09-11T21:42:53.320Z,60338.95
2018-09-11T21:45:21.489Z,60324.72
2018-09-11T21:47:49.672Z,60327.77
2018-09-11T21:50:17.883Z,60322.69
2018-09-11T21:52:46.067Z,60352.16
2018-09-11T21:55:14.252Z,60337.93
2018-09-11T21:57:42.428Z,60346.06
2018-09-11T22:00:12.073Z,60342.00
2018-09-11T22:02:40.219Z,60361.30
2018-09-11T22:05:08.931Z,60340.98
2018-09-11T22:07:37.147Z,60327.77
2018-09-11T22:10:06.687Z,60333.87
2018-09-11T22:12:34.901Z,60350.12
2018-09-11T22:15:03.098Z,60346.06
2018-09-11T22:17:31.291Z,60334.88
2018-09-11T22:19:59.462Z,60351.14
2018-09-11T22:22:27.648Z,60349.11
2018-09-11T22:24:55.898Z,60358.25
2018-09-11T22:27:24.162Z,60360.29
2018-09-11T22:29:52.339Z,60347.08
2018-09-11T22:32:20.522Z,60371.46
2018-09-11T22:34:48.703Z,60330.82
2018-09-11T22:37:16.935Z,60366.39
2018-09-11T22:39:45.055Z,60319.64
2018-09-11T22:42:13.229Z,60355.21
2018-09-11T22:44:41.412Z,60360.29
2018-09-11T22:47:09.578Z,60366.39
2018-09-11T22:49:37.819Z,60348.09
2018-09-11T22:52:06.237Z,60368.42
2018-09-11T22:54:34.435Z,60357.24
2018-09-11T22:57:02.629Z,60345.04
2018-09-11T22:59:31.182Z,60339.96
2018-09-11T23:01:59.356Z,60315.57
2018-09-11T23:04:27.532Z,60349.11
2018-09-11T23:06:55.703Z,60352.16
2018-09-11T23:09:23.913Z,60354.19
2018-09-11T23:11:52.087Z,60346.06
2018-09-11T23:14:20.280Z,60365.37
2018-09-11T23:16:48.459Z,60350.12
2018-09-11T23:19:16.658Z,60370.45
2018-09-11T23:21:44.823Z,60380.61
2018-09-11T23:24:13.012Z,60382.64
2018-09-11T23:26:41.203Z,60358.25
2018-09-11T23:29:09.384Z,60365.37
2018-09-11T23:31:37.566Z,60360.29
2018-09-11T23:34:05.995Z,60360.29
2018-09-11T23:36:34.164Z,60369.43
2018-09-11T23:39:02.350Z,60356.22
2018-09-11T23:41:30.551Z,60351.14
2018-09-11T23:43:58.745Z,60384.68
2018-09-11T23:46:26.952Z,60376.55
2018-09-11T23:48:55.131Z,60369.43
2018-09-11T23:51:23.320Z,60361.30
2018-09-11T23:53:51.492Z,60372.48
2018-09-11T23:56:19.680Z,60384.68
2018-09-11T23:58:47.866Z,60389.76
